Time;durP1;ratioP1;P1;durP2;ratioP2;P2;SDS_P1;SDS_P2;PMS_P1;PMS_P2;Temp;Humidity;BMP_temperature;BMP_pressure;BME280_temperature;BME280_humidity;BME280_pressure;Samples;Min_cycle;Max_cycle;Signal;HPM_P1;HPM_P2
2022/03/15 00:02:03;;;;;;;14.98;7.60;;;16.50;61.70;;;;;;5027434;28;20120;-61
2022/03/15 00:04:29;;;;;;;16.20;8.25;;;16.50;61.70;;;;;;5026472;28;20037;-61
2022/03/15 00:06:56;;;;;;;13.20;7.38;;;16.50;61.60;;;;;;5027336;28;20083;-61
2022/03/15 00:09:22;;;;;;;12.98;6.80;;;16.50;61.70;;;;;;5026451;28;20399;-61
2022/03/15 00:11:47;;;;;;;12.55;6.45;;;16.40;61.80;;;;;;5027503;28;20017;-61
2022/03/15 00:14:14;;;;;;;11.68;6.57;;;16.40;61.70;;;;;;5027066;28;20047;-60
2022/03/15 00:16:41;;;;;;;14.00;7.50;;;16.50;61.80;;;;;;5027196;28;20175;-61
2022/03/15 00:19:07;;;;;;;12.48;6.88;;;16.40;61.70;;;;;;5025547;28;20036;-61
2022/03/15 00:21:33;;;;;;;12.95;6.68;;;16.40;62.40;;;;;;5026642;28;20108;-61
2022/03/15 00:23:59;;;;;;;14.68;6.57;;;16.40;61.70;;;;;;5027288;28;20024;-61
2022/03/15 00:26:28;;;;;;;11.63;6.93;;;16.40;61.80;;;;;;5027408;28;20044;-61
2022/03/15 00:28:53;;;;;;;13.52;5.88;;;16.40;61.80;;;;;;5026589;28;20083;-61
2022/03/15 00:31:19;;;;;;;13.30;6.63;;;16.30;61.80;;;;;;5026611;28;20021;-61
2022/03/15 00:33:45;;;;;;;11.60;6.55;;;16.30;61.80;;;;;;5026712;28;20456;-61
2022/03/15 00:36:12;;;;;;;10.10;5.63;;;16.30;61.80;;;;;;5026938;28;20767;-61
2022/03/15 00:38:41;;;;;;;11.23;6.35;;;16.40;61.80;;;;;;5026699;28;20009;-61
2022/03/15 00:41:10;;;;;;;13.30;6.45;;;16.40;61.80;;;;;;5027715;28;20038;-61
2022/03/15 00:43:35;;;;;;;9.73;6.50;;;16.40;61.80;;;;;;5027222;28;20033;-60
2022/03/15 00:46:02;;;;;;;12.85;6.82;;;16.30;61.80;;;;;;5025172;28;20029;-61
2022/03/15 00:48:27;;;;;;;10.65;6.03;;;16.30;61.90;;;;;;5027449;28;20026;-61
2022/03/15 00:50:53;;;;;;;9.35;5.70;;;16.30;61.90;;;;;;5027054;28;20141;-61
2022/03/15 00:53:19;;;;;;;12.13;6.88;;;16.20;61.80;;;;;;5027222;28;20549;-60
2022/03/15 00:55:45;;;;;;;8.80;5.53;;;16.30;61.90;;;;;;5026995;28;20037;-60
2022/03/15 00:58:11;;;;;;;11.82;6.93;;;16.30;61.90;;;;;;5027738;28;20036;-61
2022/03/15 01:00:37;;;;;;;12.13;5.82;;;16.30;61.90;;;;;;5026201;28;20404;-61
2022/03/15 01:03:03;;;;;;;9.68;5.97;;;16.30;61.80;;;;;;5019548;28;20071;-61
2022/03/15 01:05:29;;;;;;;11.18;6.07;;;16.20;61.80;;;;;;5026593;28;20025;-61
2022/03/15 01:07:54;;;;;;;11.57;6.47;;;16.30;62.00;;;;;;5027736;28;20029;-60
2022/03/15 01:10:20;;;;;;;10.57;5.82;;;16.30;62.00;;;;;;5027314;28;20025;-61
2022/03/15 01:12:46;;;;;;;11.80;6.53;;;16.20;62.60;;;;;;5027869;28;20086;-61
2022/03/15 01:15:12;;;;;;;12.90;5.85;;;16.20;61.90;;;;;;5027293;28;20037;-61
2022/03/15 01:17:38;;;;;;;12.45;6.35;;;16.20;61.90;;;;;;5026848;28;20041;-61
2022/03/15 01:20:07;;;;;;;10.65;5.72;;;16.20;62.00;;;;;;5020570;28;20022;-60
2022/03/15 01:22:33;;;;;;;11.20;6.32;;;16.20;61.90;;;;;;5029223;28;20033;-61
2022/03/15 01:24:59;;;;;;;13.65;6.20;;;16.20;62.00;;;;;;5031127;28;20034;-61
2022/03/15 01:27:25;;;;;;;9.70;5.70;;;16.20;61.90;;;;;;5030843;28;20028;-60
2022/03/15 01:29:50;;;;;;;9.80;5.63;;;16.20;62.00;;;;;;5030922;28;20149;-60
2022/03/15 01:32:16;;;;;;;9.60;5.72;;;16.10;61.90;;;;;;5030720;28;20126;-61
2022/03/15 01:34:42;;;;;;;10.18;5.15;;;16.10;62.00;;;;;;5029601;28;20042;-61
2022/03/15 01:37:08;;;;;;;9.82;5.60;;;16.20;62.00;;;;;;5030716;28;20030;-60
2022/03/15 01:39:34;;;;;;;12.05;5.63;;;16.10;62.00;;;;;;5030599;28;20456;-60
2022/03/15 01:42:00;;;;;;;11.23;5.68;;;16.10;62.00;;;;;;5030536;28;20017;-61
2022/03/15 01:44:33;;;;;;;10.05;5.85;;;16.10;62.00;;;;;;5029725;28;20029;-60
2022/03/15 01:46:59;;;;;;;10.88;5.80;;;16.10;62.00;;;;;;5030930;28;20083;-61
2022/03/15 01:49:25;;;;;;;11.45;6.15;;;16.10;62.00;;;;;;5031727;28;20032;-60
2022/03/15 01:51:50;;;;;;;11.82;5.82;;;16.10;62.10;;;;;;5031211;28;20041;-60
2022/03/15 01:54:20;;;;;;;10.25;5.57;;;16.10;62.00;;;;;;5031079;28;20045;-61
2022/03/15 01:56:45;;;;;;;11.32;5.50;;;16.10;62.00;;;;;;5030845;28;20029;-61
2022/03/15 01:59:13;;;;;;;10.40;5.95;;;16.10;62.00;;;;;;5015757;28;20036;-61
2022/03/15 02:01:41;;;;;;;8.60;5.45;;;16.00;62.00;;;;;;5011293;28;20092;-61
2022/03/15 02:04:07;;;;;;;9.38;5.38;;;16.10;62.00;;;;;;5030694;28;20447;-61
2022/03/15 02:06:36;;;;;;;9.82;5.85;;;16.00;62.10;;;;;;5031119;28;20087;-61
2022/03/15 02:09:13;;;;;;;9.65;5.50;;;16.10;62.10;;;;;;5030679;28;20030;-61
2022/03/15 02:11:39;;;;;;;9.25;5.75;;;16.00;62.00;;;;;;5030832;28;20028;-60
2022/03/15 02:14:04;;;;;;;10.57;6.10;;;16.10;62.10;;;;;;5029538;28;20029;-61
2022/03/15 02:16:31;;;;;;;14.70;6.20;;;16.00;62.00;;;;;;5030907;28;20026;-60
2022/03/15 02:18:59;;;;;;;10.27;5.82;;;16.10;62.10;;;;;;5030973;28;20018;-62
2022/03/15 02:21:26;;;;;;;8.20;5.00;;;16.00;62.10;;;;;;5030776;28;20022;-61
2022/03/15 02:23:52;;;;;;;11.60;5.53;;;16.00;62.10;;;;;;5030171;28;20112;-61
2022/03/15 02:26:17;;;;;;;10.52;5.53;;;16.00;62.10;;;;;;5029542;28;20471;-61
2022/03/15 02:28:44;;;;;;;10.90;5.97;;;16.00;62.20;;;;;;5030309;28;20029;-60
2022/03/15 02:31:10;;;;;;;9.02;5.15;;;16.00;62.20;;;;;;5012793;28;20058;-61
2022/03/15 02:33:35;;;;;;;9.38;5.80;;;16.00;62.10;;;;;;5017137;28;20049;-61
2022/03/15 02:36:01;;;;;;;11.13;6.03;;;16.00;62.20;;;;;;5030706;28;20914;-60
2022/03/15 02:38:26;;;;;;;11.20;6.38;;;16.00;62.30;;;;;;5030319;28;20033;-61
2022/03/15 02:40:52;;;;;;;11.45;6.47;;;16.00;62.20;;;;;;5029882;28;20025;-60
2022/03/15 02:43:17;;;;;;;11.38;6.47;;;15.90;62.20;;;;;;5012729;28;20387;-61
2022/03/15 02:45:43;;;;;;;9.32;5.10;;;15.90;62.20;;;;;;5029736;28;20108;-61
2022/03/15 02:48:09;;;;;;;10.60;5.95;;;15.90;62.10;;;;;;5030759;28;20029;-60
2022/03/15 02:50:34;;;;;;;8.82;5.22;;;15.90;62.10;;;;;;5029890;28;20452;-60
2022/03/15 02:53:00;;;;;;;8.50;5.60;;;15.90;62.20;;;;;;5030370;28;20029;-60
2022/03/15 02:55:26;;;;;;;11.30;5.43;;;15.90;62.20;;;;;;5029289;28;20095;-61
2022/03/15 02:57:51;;;;;;;9.20;5.97;;;15.90;62.10;;;;;;5011611;28;20530;-61
2022/03/15 03:00:17;;;;;;;10.23;5.53;;;15.90;62.10;;;;;;5024553;28;20021;-60
2022/03/15 03:02:43;;;;;;;10.82;5.70;;;15.90;62.20;;;;;;5030053;28;20018;-61
2022/03/15 03:05:09;;;;;;;14.20;6.47;;;15.90;62.10;;;;;;5030351;28;20042;-61
2022/03/15 03:07:35;;;;;;;10.88;5.43;;;15.90;62.20;;;;;;5028881;28;20104;-61
2022/03/15 03:10:01;;;;;;;10.00;6.25;;;15.90;62.20;;;;;;5030138;28;20021;-61
2022/03/15 03:12:28;;;;;;;9.98;5.35;;;15.90;62.40;;;;;;5029937;28;20030;-61
2022/03/15 03:14:55;;;;;;;8.68;5.57;;;15.90;62.30;;;;;;5029381;28;20036;-61
2022/03/15 03:17:23;;;;;;;12.30;6.38;;;15.90;62.20;;;;;;5030298;28;20032;-61
2022/03/15 03:19:48;;;;;;;8.68;5.78;;;15.90;62.30;;;;;;5029269;28;20033;-61
2022/03/15 03:22:14;;;;;;;10.95;5.85;;;15.90;62.20;;;;;;5029759;28;20570;-61
2022/03/15 03:24:39;;;;;;;10.43;5.38;;;15.90;62.40;;;;;;5029750;28;20048;-61
2022/03/15 03:27:05;;;;;;;9.18;5.30;;;15.90;62.40;;;;;;5029768;28;20396;-61
2022/03/15 03:29:32;;;;;;;8.63;5.22;;;15.90;62.30;;;;;;5029389;28;20026;-60
2022/03/15 03:31:57;;;;;;;8.43;5.00;;;15.90;62.30;;;;;;5028467;28;20472;-60
2022/03/15 03:34:23;;;;;;;11.10;5.63;;;15.80;62.20;;;;;;5029746;28;20018;-60
2022/03/15 03:36:48;;;;;;;8.82;6.20;;;15.80;62.30;;;;;;5029011;28;20033;-61
2022/03/15 03:39:14;;;;;;;9.82;5.07;;;15.80;62.20;;;;;;5029819;28;20033;-61
2022/03/15 03:41:40;;;;;;;11.10;5.80;;;15.80;62.30;;;;;;5028667;28;20476;-60
2022/03/15 03:44:06;;;;;;;9.10;5.38;;;15.80;62.30;;;;;;5029186;28;20057;-61
2022/03/15 03:46:32;;;;;;;9.77;6.25;;;15.80;62.30;;;;;;5029104;28;20049;-61
2022/03/15 03:48:58;;;;;;;8.02;5.45;;;15.80;62.40;;;;;;5023632;28;20025;-61
2022/03/15 03:51:24;;;;;;;8.65;4.68;;;15.80;62.30;;;;;;5018032;28;20132;-61
2022/03/15 03:53:49;;;;;;;9.02;5.15;;;15.80;62.40;;;;;;5028850;28;20032;-61
2022/03/15 03:56:15;;;;;;;12.63;5.90;;;15.70;62.30;;;;;;5028869;28;20041;-60
2022/03/15 03:58:40;;;;;;;11.18;5.38;;;15.70;62.30;;;;;;5029695;28;20386;-61
2022/03/15 04:01:06;;;;;;;7.93;5.07;;;15.80;62.40;;;;;;5029048;28;20025;-60
2022/03/15 04:03:33;;;;;;;8.70;5.30;;;15.70;62.40;;;;;;5028222;28;20038;-61
2022/03/15 04:06:02;;;;;;;10.07;5.35;;;15.70;62.50;;;;;;5029258;28;20032;-61
2022/03/15 04:08:28;;;;;;;8.25;5.13;;;15.70;62.40;;;;;;5025478;28;20033;-61
2022/03/15 04:10:53;;;;;;;11.43;5.22;;;15.70;62.40;;;;;;5028915;28;20029;-60
2022/03/15 04:13:19;;;;;;;9.15;5.47;;;15.70;62.40;;;;;;5029294;28;20040;-60
2022/03/15 04:15:46;;;;;;;10.52;5.95;;;15.70;62.40;;;;;;5028351;28;20083;-60
2022/03/15 04:18:12;;;;;;;10.20;5.35;;;15.70;62.40;;;;;;5025004;28;20049;-60
2022/03/15 04:20:38;;;;;;;11.23;5.85;;;15.70;62.50;;;;;;5028980;28;20136;-60
2022/03/15 04:23:04;;;;;;;9.05;6.03;;;15.70;62.50;;;;;;5028274;28;20022;-60
2022/03/15 04:25:29;;;;;;;10.98;5.15;;;15.70;62.40;;;;;;5028719;28;20013;-60
2022/03/15 04:28:00;;;;;;;9.65;5.85;;;15.70;62.40;;;;;;5028518;28;20025;-60
2022/03/15 04:30:26;;;;;;;8.20;5.25;;;15.70;62.40;;;;;;5028448;28;20026;-60
2022/03/15 04:32:52;;;;;;;7.72;4.78;;;15.70;62.40;;;;;;5027777;28;20077;-60
2022/03/15 04:35:17;;;;;;;9.82;5.53;;;15.70;62.50;;;;;;5028482;28;20065;-60
2022/03/15 04:37:43;;;;;;;10.73;4.90;;;15.70;62.40;;;;;;5027874;28;20448;-60
2022/03/15 04:40:09;;;;;;;12.73;5.13;;;15.70;62.40;;;;;;5026628;28;20040;-61
2022/03/15 04:42:35;;;;;;;11.80;5.78;;;15.70;62.30;;;;;;5027857;28;20021;-62
2022/03/15 04:45:01;;;;;;;8.52;4.93;;;15.70;62.20;;;;;;5028546;28;20068;-62
2022/03/15 04:47:27;;;;;;;10.75;5.97;;;15.70;62.30;;;;;;5028129;28;20033;-62
2022/03/15 04:49:52;;;;;;;8.43;5.05;;;15.70;62.30;;;;;;5028715;28;20091;-62
2022/03/15 04:52:18;;;;;;;9.75;5.95;;;15.70;62.30;;;;;;5028712;28;20050;-61
2022/03/15 04:54:45;;;;;;;10.00;5.13;;;15.70;62.40;;;;;;5028950;28;20041;-60
2022/03/15 04:57:10;;;;;;;10.18;4.95;;;15.70;62.40;;;;;;5032884;28;20440;-61
2022/03/15 04:59:36;;;;;;;8.80;5.80;;;15.70;62.40;;;;;;5032251;28;20136;-60
2022/03/15 05:02:02;;;;;;;12.77;6.53;;;15.70;62.40;;;;;;5032177;28;20454;-60
2022/03/15 05:04:28;;;;;;;17.00;11.13;;;15.00;60.00;;;;;;5032592;28;20037;-61
2022/03/15 05:06:53;;;;;;;21.13;12.70;;;13.50;63.40;;;;;;5032175;28;20476;-61
2022/03/15 05:09:19;;;;;;;23.95;15.40;;;12.70;65.60;;;;;;5025087;28;20030;-60
2022/03/15 05:11:46;;;;;;;22.77;15.40;;;12.40;66.60;;;;;;5027832;28;20504;-60
2022/03/15 05:14:12;;;;;;;22.65;15.27;;;12.20;67.10;;;;;;5032005;28;20021;-59
2022/03/15 05:16:38;;;;;;;22.60;15.55;;;12.10;67.60;;;;;;5031685;28;20057;-60
2022/03/15 05:19:03;;;;;;;25.27;15.63;;;11.90;67.80;;;;;;5031585;28;20551;-60
2022/03/15 05:21:29;;;;;;;25.35;15.40;;;11.80;68.40;;;;;;5030949;28;20025;-60
2022/03/15 05:23:55;;;;;;;23.65;15.30;;;11.80;68.50;;;;;;5030452;28;20022;-60
2022/03/15 05:26:21;;;;;;;23.73;15.48;;;11.70;68.90;;;;;;5032002;28;20091;-58
2022/03/15 05:28:49;;;;;;;19.52;14.68;;;11.60;68.90;;;;;;5030840;28;20044;-59
2022/03/15 05:31:16;;;;;;;22.65;14.52;;;11.60;69.10;;;;;;5031548;28;20061;-61
2022/03/15 05:33:43;;;;;;;21.52;14.30;;;11.50;69.30;;;;;;5031817;28;20026;-60
2022/03/15 05:36:09;;;;;;;21.42;14.90;;;11.50;69.30;;;;;;5031104;28;20586;-61
2022/03/15 05:38:35;;;;;;;22.55;14.35;;;11.40;69.50;;;;;;5031844;28;20424;-60
2022/03/15 05:41:01;;;;;;;21.92;14.40;;;11.30;69.80;;;;;;5032016;28;20030;-61
2022/03/15 05:43:27;;;;;;;28.05;14.70;;;11.40;69.70;;;;;;5030916;28;20029;-60
2022/03/15 05:45:52;;;;;;;20.02;14.07;;;11.40;70.30;;;;;;5031289;28;20031;-61
2022/03/15 05:48:19;;;;;;;21.33;13.70;;;12.00;68.10;;;;;;5031133;28;20029;-61
2022/03/15 05:50:45;;;;;;;24.63;14.35;;;12.90;64.70;;;;;;5031326;28;20033;-59
2022/03/15 05:53:10;;;;;;;22.52;13.57;;;13.50;63.10;;;;;;5031585;28;20026;-60
2022/03/15 05:55:36;;;;;;;23.90;13.43;;;13.90;62.30;;;;;;5031278;28;20030;-60
2022/03/15 05:58:03;;;;;;;21.45;11.98;;;14.10;62.00;;;;;;5030754;28;20124;-61
2022/03/15 06:00:31;;;;;;;21.35;13.27;;;14.20;61.70;;;;;;5031043;28;20021;-59
2022/03/15 06:02:56;;;;;;;24.52;12.07;;;14.30;61.60;;;;;;5031078;28;20033;-60
2022/03/15 06:05:22;;;;;;;24.25;11.95;;;14.40;61.50;;;;;;5030546;28;20091;-61
2022/03/15 06:07:49;;;;;;;20.02;11.10;;;14.60;61.40;;;;;;5030310;28;20424;-62
2022/03/15 06:10:17;;;;;;;19.02;10.95;;;14.60;61.20;;;;;;5030977;28;20021;-63
2022/03/15 06:12:43;;;;;;;22.40;11.32;;;14.70;61.20;;;;;;5022073;28;20014;-60
2022/03/15 06:15:09;;;;;;;17.05;10.95;;;14.70;61.10;;;;;;5030293;28;20028;-61
2022/03/15 06:17:44;;;;;;;22.27;11.05;;;14.80;61.20;;;;;;5030298;28;20018;-61
2022/03/15 06:20:14;;;;;;;17.23;9.50;;;14.80;61.30;;;;;;5031146;28;20118;-60
2022/03/15 06:22:41;;;;;;;16.00;10.25;;;14.90;61.40;;;;;;5030072;28;20494;-61
2022/03/15 06:25:08;;;;;;;17.75;10.65;;;14.90;61.50;;;;;;5031325;28;20025;-60
2022/03/15 06:27:34;;;;;;;18.88;10.10;;;14.90;61.40;;;;;;5030339;28;20013;-60
2022/03/15 06:30:00;;;;;;;15.65;9.77;;;15.00;61.60;;;;;;5029843;28;20064;-61
2022/03/15 06:32:26;;;;;;;19.63;10.50;;;15.00;61.50;;;;;;5028945;28;20554;-61
2022/03/15 06:34:51;;;;;;;19.92;9.98;;;15.00;61.50;;;;;;5030002;28;20025;-62
2022/03/15 06:37:17;;;;;;;21.80;9.38;;;15.10;61.60;;;;;;5029915;28;20022;-61
2022/03/15 06:39:44;;;;;;;16.85;8.85;;;15.10;61.70;;;;;;5029276;28;20033;-61
2022/03/15 06:42:11;;;;;;;17.90;9.10;;;15.10;61.60;;;;;;5029414;28;20024;-61
2022/03/15 06:44:41;;;;;;;11.32;8.25;;;15.10;61.60;;;;;;5025223;28;20053;-61
2022/03/15 06:47:07;;;;;;;12.93;7.85;;;15.20;61.70;;;;;;5029630;28;20029;-61
2022/03/15 06:49:33;;;;;;;15.50;8.95;;;15.20;61.70;;;;;;5026297;28;20033;-61
2022/03/15 06:51:58;;;;;;;16.30;7.90;;;15.20;61.60;;;;;;5029326;28;20063;-60
2022/03/15 06:54:25;;;;;;;12.85;8.20;;;15.20;61.80;;;;;;5029495;28;20101;-61
2022/03/15 06:56:50;;;;;;;16.02;8.20;;;15.30;61.90;;;;;;5029442;28;20040;-62
2022/03/15 06:59:17;;;;;;;17.98;8.13;;;15.30;61.90;;;;;;5028370;28;20381;-62
2022/03/15 07:01:42;;;;;;;14.23;7.60;;;15.30;61.90;;;;;;5028693;28;20230;-61
2022/03/15 07:04:08;;;;;;;15.82;8.07;;;15.30;61.90;;;;;;5029406;28;20100;-62
2022/03/15 07:06:34;;;;;;;13.57;7.97;;;15.40;62.00;;;;;;5029756;28;20581;-61
2022/03/15 07:09:00;;;;;;;14.27;6.78;;;15.40;62.00;;;;;;5029594;28;20022;-60
2022/03/15 07:11:25;;;;;;;15.48;8.38;;;15.40;62.70;;;;;;5030055;28;20392;-61
2022/03/15 07:13:51;;;;;;;13.63;6.65;;;15.40;62.00;;;;;;5028134;28;20061;-61
2022/03/15 07:16:16;;;;;;;15.95;7.63;;;15.40;61.90;;;;;;5029081;28;20147;-61
2022/03/15 07:18:43;;;;;;;11.95;6.40;;;15.50;62.00;;;;;;5027865;28;20032;-64
2022/03/15 07:21:09;;;;;;;11.25;6.43;;;15.60;61.90;;;;;;5028473;28;20479;-61
2022/03/15 07:23:34;;;;;;;14.27;6.38;;;15.60;62.10;;;;;;5028556;28;20036;-63
2022/03/15 07:26:00;;;;;;;11.57;6.47;;;15.70;62.10;;;;;;5028734;28;20029;-62
2022/03/15 07:28:25;;;;;;;14.95;6.10;;;15.80;62.30;;;;;;5028175;28;20116;-62
2022/03/15 07:30:51;;;;;;;16.48;7.00;;;15.80;62.30;;;;;;5028763;28;20049;-59
2022/03/15 07:33:16;;;;;;;14.43;6.03;;;15.90;62.60;;;;;;5028427;28;20024;-60
2022/03/15 07:35:42;;;;;;;24.65;6.80;;;15.90;62.50;;;;;;5027708;28;20562;-60
2022/03/15 07:38:08;;;;;;;16.83;6.65;;;16.00;62.80;;;;;;5027753;28;20553;-60
2022/03/15 07:40:33;;;;;;;18.02;6.40;;;16.00;63.10;;;;;;5027664;28;20009;-61
2022/03/15 07:42:59;;;;;;;17.83;6.30;;;16.00;63.30;;;;;;5026760;28;20870;-61
2022/03/15 07:45:25;;;;;;;27.10;7.07;;;16.00;63.50;;;;;;5027055;28;20021;-61
2022/03/15 07:47:51;;;;;;;15.15;5.53;;;16.10;63.80;;;;;;5027014;28;20542;-61
2022/03/15 07:50:18;;;;;;;26.50;7.88;;;16.10;64.00;;;;;;5026489;28;20041;-61
2022/03/15 07:52:44;;;;;;;16.70;5.82;;;16.10;64.20;;;;;;5028267;28;20404;-60
2022/03/15 07:55:10;;;;;;;13.90;5.00;;;16.20;64.30;;;;;;5028162;28;20029;-60
2022/03/15 07:57:36;;;;;;;21.13;6.72;;;16.20;64.40;;;;;;5025947;28;20056;-61
2022/03/15 08:00:02;;;;;;;21.27;7.43;;;16.20;64.80;;;;;;5027682;28;20017;-60
2022/03/15 08:02:28;;;;;;;17.77;7.55;;;16.00;64.10;;;;;;5028062;28;20025;-60
2022/03/15 08:04:54;;;;;;;21.48;11.75;;;15.10;61.70;;;;;;5026537;28;20029;-61
2022/03/15 08:07:22;;;;;;;22.85;12.30;;;14.10;63.70;;;;;;5027882;28;20132;-61
2022/03/15 08:09:48;;;;;;;19.52;12.05;;;13.60;65.00;;;;;;5026950;28;20021;-60
2022/03/15 08:12:13;;;;;;;24.13;12.25;;;13.30;65.80;;;;;;5026205;28;20022;-60
2022/03/15 08:14:39;;;;;;;27.63;12.85;;;13.20;66.60;;;;;;5026423;28;20557;-61
2022/03/15 08:17:04;;;;;;;21.48;12.95;;;13.10;66.50;;;;;;5026164;28;20018;-60
2022/03/15 08:19:30;;;;;;;25.30;13.68;;;13.10;66.60;;;;;;5014239;28;20030;-60
2022/03/15 08:21:58;;;;;;;24.27;11.60;;;13.00;66.50;;;;;;5026381;28;20076;-60
2022/03/15 08:24:23;;;;;;;27.33;13.38;;;13.00;66.70;;;;;;5026616;28;20045;-60
2022/03/15 08:26:50;;;;;;;31.27;14.45;;;12.90;66.60;;;;;;5027794;28;20027;-60
2022/03/15 08:29:16;;;;;;;18.90;12.55;;;12.80;66.70;;;;;;5027514;28;20033;-51
2022/03/15 08:31:42;;;;;;;16.65;11.73;;;12.30;67.90;;;;;;5026945;28;20036;-59
2022/03/15 08:34:07;;;;;;;20.67;12.43;;;13.10;66.10;;;;;;5018622;28;20025;-61
2022/03/15 08:36:34;;;;;;;19.10;10.93;;;14.00;63.60;;;;;;5026317;28;20030;-61
2022/03/15 08:39:00;;;;;;;15.63;9.60;;;14.50;62.10;;;;;;5026116;28;20021;-61
2022/03/15 08:41:25;;;;;;;16.25;9.57;;;14.80;61.40;;;;;;5026113;28;20022;-61
2022/03/15 08:43:51;;;;;;;24.45;10.20;;;15.20;60.40;;;;;;5026499;28;20024;-62
2022/03/15 08:46:17;;;;;;;19.98;10.63;;;15.60;59.80;;;;;;5025970;28;20395;-63
2022/03/15 08:48:43;;;;;;;16.20;8.68;;;16.00;59.70;;;;;;5024954;28;20021;-61
2022/03/15 08:51:09;;;;;;;17.67;8.85;;;16.40;59.50;;;;;;5025605;28;20049;-61
2022/03/15 08:53:34;;;;;;;18.08;7.82;;;16.60;59.80;;;;;;5027516;28;20388;-61
2022/03/15 08:56:00;;;;;;;16.08;8.38;;;16.70;59.50;;;;;;5026574;28;20033;-60
2022/03/15 08:58:26;;;;;;;19.42;8.77;;;16.90;59.70;;;;;;5027461;28;20068;-61
2022/03/15 09:00:52;;;;;;;16.98;7.78;;;17.00;59.70;;;;;;5026865;28;20029;-61
2022/03/15 09:03:17;;;;;;;17.23;7.20;;;17.20;59.50;;;;;;5025448;28;20116;-62
2022/03/15 09:05:43;;;;;;;18.80;7.78;;;17.30;59.50;;;;;;5026784;28;20109;-62
2022/03/15 09:08:09;;;;;;;20.40;7.97;;;17.30;59.80;;;;;;5027158;28;20022;-62
2022/03/15 09:10:35;;;;;;;17.73;6.32;;;17.30;59.90;;;;;;5024870;28;20026;-62
2022/03/15 09:13:03;;;;;;;14.55;6.13;;;17.20;60.40;;;;;;5024574;28;20021;-61
2022/03/15 09:15:29;;;;;;;17.70;6.90;;;17.20;60.60;;;;;;5025264;28;20689;-61
2022/03/15 09:17:56;;;;;;;15.95;6.10;;;17.30;60.50;;;;;;5024912;28;20018;-61
2022/03/15 09:20:22;;;;;;;16.70;5.95;;;17.30;60.40;;;;;;5026229;28;20049;-61
2022/03/15 09:22:47;;;;;;;17.70;5.95;;;17.40;60.80;;;;;;5025680;28;20014;-60
2022/03/15 09:25:14;;;;;;;12.98;5.45;;;17.40;60.80;;;;;;5026249;28;20588;-61
2022/03/15 09:27:40;;;;;;;14.75;5.53;;;17.40;60.80;;;;;;5023093;28;20535;-61
2022/03/15 09:30:07;;;;;;;12.70;5.35;;;17.30;60.80;;;;;;5026175;28;20120;-60
2022/03/15 09:32:32;;;;;;;28.55;5.45;;;17.40;61.00;;;;;;5026386;28;20116;-60
2022/03/15 09:34:58;;;;;;;17.95;5.85;;;17.30;60.90;;;;;;5026142;28;20116;-60
2022/03/15 09:37:24;;;;;;;12.05;5.20;;;17.30;61.00;;;;;;5025111;28;20139;-59
2022/03/15 09:39:52;;;;;;;11.68;4.70;;;17.30;61.80;;;;;;5025805;28;20025;-61
2022/03/15 09:42:19;;;;;;;13.63;4.60;;;17.30;61.20;;;;;;5029915;28;20112;-62
2022/03/15 09:44:47;;;;;;;13.77;4.80;;;17.30;61.10;;;;;;5028760;28;20048;-61
2022/03/15 09:47:15;;;;;;;10.18;4.70;;;17.30;61.10;;;;;;5030239;28;20056;-59
2022/03/15 09:49:43;;;;;;;10.23;4.45;;;17.30;61.20;;;;;;5029235;28;20110;-59
2022/03/15 09:52:11;;;;;;;11.05;4.15;;;17.20;61.20;;;;;;5029291;28;20054;-59
2022/03/15 09:54:38;;;;;;;12.95;4.18;;;17.20;61.20;;;;;;5030187;28;20135;-60
2022/03/15 09:57:05;;;;;;;8.68;3.92;;;17.20;61.10;;;;;;5030010;28;20033;-59
2022/03/15 09:59:31;;;;;;;16.40;4.38;;;17.20;61.20;;;;;;5029482;28;20033;-61
2022/03/15 10:01:59;;;;;;;10.88;4.68;;;17.20;61.30;;;;;;5030466;28;20040;-61
2022/03/15 10:04:25;;;;;;;9.00;4.30;;;17.20;61.30;;;;;;5030465;28;20105;-61
2022/03/15 10:06:52;;;;;;;10.30;3.95;;;17.20;61.30;;;;;;5029796;28;20081;-61
2022/03/15 10:09:18;;;;;;;10.68;3.97;;;17.20;61.30;;;;;;5030320;28;20407;-60
2022/03/15 10:11:44;;;;;;;11.98;4.35;;;17.20;61.30;;;;;;5029773;28;20175;-61
2022/03/15 10:14:10;;;;;;;10.73;3.90;;;17.20;61.40;;;;;;5030047;28;20108;-60
2022/03/15 10:16:42;;;;;;;12.48;3.70;;;17.10;61.40;;;;;;5029491;28;20029;-61
2022/03/15 10:19:15;;;;;;;6.93;4.03;;;17.10;61.50;;;;;;5030206;28;20025;-61
2022/03/15 10:21:45;;;;;;;7.55;3.42;;;17.10;61.40;;;;;;5029932;28;20482;-60
2022/03/15 10:24:14;;;;;;;12.15;3.85;;;17.10;61.50;;;;;;5028947;28;20025;-60
2022/03/15 10:26:40;;;;;;;7.25;3.58;;;17.10;61.70;;;;;;5029827;28;20025;-61
2022/03/15 10:29:07;;;;;;;8.98;3.83;;;17.20;61.80;;;;;;5029442;28;20028;-61
2022/03/15 10:31:34;;;;;;;11.52;3.22;;;17.20;61.80;;;;;;5029292;28;20029;-60
2022/03/15 10:34:03;;;;;;;7.75;3.65;;;17.20;62.20;;;;;;5029326;28;20017;-61
2022/03/15 10:36:37;;;;;;;10.55;4.03;;;17.20;62.30;;;;;;5029355;28;20480;-60
2022/03/15 10:39:03;;;;;;;11.20;3.63;;;17.20;62.20;;;;;;5027533;28;20033;-60
2022/03/15 10:41:29;;;;;;;10.60;4.20;;;17.20;61.80;;;;;;5027433;28;20184;-60
2022/03/15 10:43:56;;;;;;;10.95;3.65;;;17.20;61.60;;;;;;5029340;28;20537;-61
2022/03/15 10:46:25;;;;;;;11.52;4.03;;;17.10;61.50;;;;;;5029526;28;20405;-60
2022/03/15 10:49:03;;;;;;;10.70;4.35;;;17.10;61.60;;;;;;5029433;28;20025;-57
2022/03/15 10:51:29;;;;;;;6.60;3.40;;;17.10;61.70;;;;;;5029243;28;20120;-60
2022/03/15 10:54:03;;;;;;;10.05;3.92;;;17.10;60.80;;;;;;5028874;28;20112;-60
2022/03/15 10:56:30;;;;;;;10.50;3.90;;;17.00;61.40;;;;;;5028375;28;20041;-61
2022/03/15 10:59:02;;;;;;;12.05;4.68;;;17.00;61.30;;;;;;5028935;28;20055;-61
2022/03/15 11:01:38;;;;;;;17.58;3.75;;;17.10;61.30;;;;;;5029534;28;20021;-60
2022/03/15 11:04:06;;;;;;;10.20;3.83;;;17.20;61.80;;;;;;5020839;28;20049;-61
2022/03/15 11:06:34;;;;;;;17.88;4.22;;;17.40;61.30;;;;;;5030232;28;20072;-61
2022/03/15 11:09:00;;;;;;;10.30;3.70;;;;;;;;;;5028965;28;20542;-62
2022/03/15 11:11:27;;;;;;;11.75;3.90;;;;;;;;;;5026127;28;20030;-62
2022/03/15 11:14:06;;;;;;;18.33;5.15;;;;;;;;;;5028748;28;20539;-62
2022/03/15 11:16:36;;;;;;;15.57;5.82;;;;;;;;;;5029397;28;20377;-63
2022/03/15 11:19:03;;;;;;;18.60;7.43;;;;;;;;;;5029213;28;20046;-63
2022/03/15 11:21:31;;;;;;;20.65;7.68;;;;;;;;;;5028048;28;20120;-64
2022/03/15 11:23:59;;;;;;;14.88;8.43;;;;;;;;;;5027722;28;20041;-64
2022/03/15 11:26:27;;;;;;;12.98;6.68;;;;;;;;;;5028333;28;20207;-64
2022/03/15 11:28:54;;;;;;;17.08;6.93;;;;;;;;;;5028059;28;20108;-65
2022/03/15 11:31:20;;;;;;;17.88;7.82;;;;;;;;;;5028712;28;20124;-65
2022/03/15 11:33:47;;;;;;;12.10;5.70;;;;;;;;;;5029190;28;20156;-59
2022/03/15 11:36:13;;;;;;;14.85;6.43;;;;;;;;;;5027956;28;20131;-61
2022/03/15 11:38:41;;;;;;;13.98;6.20;;;;;;;;;;5027687;28;20049;-61
2022/03/15 11:41:10;;;;;;;10.38;6.30;;;;;;;;;;5027756;28;20038;-61
2022/03/15 11:43:40;;;;;;;18.40;7.20;;;;;;;;;;5027862;28;20400;-61
2022/03/15 11:46:11;;;;;;;12.77;5.60;;;;;;;;;;5027964;28;20041;-61
2022/03/15 11:48:44;;;;;;;12.30;6.57;;;;;;;;;;5027861;28;20036;-59
2022/03/15 11:51:10;;;;;;;15.43;6.82;;;;;;;;;;5027450;28;20049;-60
2022/03/15 11:53:48;;;;;;;16.73;7.28;;;;;;;;;;5027225;28;20026;-59
2022/03/15 11:56:47;;;;;;;24.40;6.20;;;;;;;;;;5007659;28;20080;-61
2022/03/15 11:59:13;;;;;;;14.52;5.88;;;;;;;;;;5022332;28;20037;-61
2022/03/15 12:01:43;;;;;;;9.70;5.63;;;;;;;;;;5027428;28;20757;-62
2022/03/15 12:04:10;;;;;;;16.02;5.65;;;;;;;;;;5027034;28;20512;-62
2022/03/15 12:06:36;;;;;;;10.15;5.65;;;;;;;;;;5028287;28;20108;-60
2022/03/15 12:09:10;;;;;;;13.15;5.97;;;;;;;;;;5024435;28;20061;-62
2022/03/15 12:11:39;;;;;;;11.27;5.20;;;;;;;;;;5009260;28;20101;-60
2022/03/15 12:14:09;;;;;;;10.10;5.40;;;;;;;;;;5025684;28;20025;-59
2022/03/15 12:16:44;;;;;;;9.90;4.75;;;;;;;;;;5028778;28;20375;-60
2022/03/15 12:21:57;;;;;;;13.27;5.82;;;;;;;;;;5008550;28;20069;-60
2022/03/15 12:24:44;;;;;;;13.15;4.75;;;;;;;;;;5019729;28;20145;-56
2022/03/15 12:27:19;;;;;;;18.40;5.18;;;;;;;;;;5008430;28;20029;-56
2022/03/15 12:29:54;;;;;;;12.35;5.45;;;;;;;;;;5025203;28;20766;-53
2022/03/15 12:32:22;;;;;;;9.77;4.88;;;;;;;;;;5028933;28;20128;-58
2022/03/15 12:34:50;;;;;;;13.05;5.10;;;;;;;;;;5028241;28;20114;-58
2022/03/15 12:37:17;;;;;;;10.57;4.75;;;;;;;;;;5028551;28;20104;-58
2022/03/15 12:39:53;;;;;;;8.35;4.50;;;;;;;;;;5028707;28;20029;-59
2022/03/15 12:42:22;;;;;;;11.30;4.80;;;;;;;;;;5028901;28;20029;-59
2022/03/15 12:44:48;;;;;;;10.57;4.68;;;;;;;;;;5027589;28;20033;-59
2022/03/15 12:47:19;;;;;;;12.52;5.22;;;;;;;;;;5028437;28;20034;-59
2022/03/15 12:50:04;;;;;;;9.38;3.92;;;;;;;;;;5021131;28;20041;-54
2022/03/15 12:52:36;;;;;;;13.13;4.35;;;;;;;;;;5028490;28;20119;-61